sensor_id;sensor_type;location;lat;lon;timestamp;pressure;altitude;pressure_sealevel;temperature;humidity
2268;BME280;11052;43.338;25.502;2023-02-19T00:00:11;100669.88;;;6.68;100.00
2268;BME280;11052;43.338;25.502;2023-02-19T00:02:40;100666.44;;;6.68;100.00
2268;BME280;11052;43.338;25.502;2023-02-19T00:05:11;100664.06;;;6.39;100.00
2268;BME280;11052;43.338;25.502;2023-02-19T00:07:38;100659.03;;;6.23;100.00
2268;BME280;11052;43.338;25.502;2023-02-19T00:10:05;100662.56;;;6.07;100.00
2268;BME280;11052;43.338;25.502;2023-02-19T00:12:32;100655.66;;;6.14;100.00
2268;BME280;11052;43.338;25.502;2023-02-19T00:14:59;100647.00;;;6.27;100.00
2268;BME280;11052;43.338;25.502;2023-02-19T00:17:27;100645.28;;;6.24;100.00
2268;BME280;11052;43.338;25.502;2023-02-19T00:19:54;100657.34;;;6.16;100.00
2268;BME280;11052;43.338;25.502;2023-02-19T00:22:22;100657.38;;;6.13;100.00
2268;BME280;11052;43.338;25.502;2023-02-19T00:24:49;100647.03;;;6.19;100.00
2268;BME280;11052;43.338;25.502;2023-02-19T00:27:16;100652.19;;;6.18;100.00
2268;BME280;11052;43.338;25.502;2023-02-19T00:29:44;100645.38;;;6.12;100.00
2268;BME280;11052;43.338;25.502;2023-02-19T00:32:11;100656.69;;;5.90;100.00
2268;BME280;11052;43.338;25.502;2023-02-19T00:34:38;100654.09;;;5.87;100.00
2268;BME280;11052;43.338;25.502;2023-02-19T00:37:05;100647.25;;;5.89;100.00
2268;BME280;11052;43.338;25.502;2023-02-19T00:39:33;100646.38;;;5.91;100.00
2268;BME280;11052;43.338;25.502;2023-02-19T00:42:00;100644.72;;;5.74;100.00
2268;BME280;11052;43.338;25.502;2023-02-19T00:44:27;100651.59;;;5.69;100.00
2268;BME280;11052;43.338;25.502;2023-02-19T00:46:54;100629.28;;;5.78;100.00
2268;BME280;11052;43.338;25.502;2023-02-19T00:49:22;100623.25;;;5.84;100.00
2268;BME280;11052;43.338;25.502;2023-02-19T00:51:50;100617.31;;;5.71;100.00
2268;BME280;11052;43.338;25.502;2023-02-19T00:54:17;100612.19;;;5.65;100.00
2268;BME280;11052;43.338;25.502;2023-02-19T00:56:46;100610.59;;;5.38;100.00
2268;BME280;11052;43.338;25.502;2023-02-19T00:59:14;100614.88;;;5.41;100.00
2268;BME280;11052;43.338;25.502;2023-02-19T01:01:42;100602.03;;;5.39;100.00
2268;BME280;11052;43.338;25.502;2023-02-19T01:04:10;100602.84;;;5.44;100.00
2268;BME280;11052;43.338;25.502;2023-02-19T01:06:37;100602.84;;;5.49;100.00
2268;BME280;11052;43.338;25.502;2023-02-19T01:09:04;100601.13;;;5.48;100.00
2268;BME280;11052;43.338;25.502;2023-02-19T01:11:32;100594.25;;;5.50;100.00
2268;BME280;11052;43.338;25.502;2023-02-19T01:14:01;100584.81;;;5.55;100.00
2268;BME280;11052;43.338;25.502;2023-02-19T01:16:29;100588.25;;;5.55;100.00
2268;BME280;11052;43.338;25.502;2023-02-19T01:18:56;100589.91;;;5.64;100.00
2268;BME280;11052;43.338;25.502;2023-02-19T01:21:25;100596.78;;;5.62;100.00
2268;BME280;11052;43.338;25.502;2023-02-19T01:23:53;100586.47;;;5.64;100.00
2268;BME280;11052;43.338;25.502;2023-02-19T01:26:22;100587.38;;;5.56;100.00
2268;BME280;11052;43.338;25.502;2023-02-19T01:28:49;100598.50;;;5.57;100.00
2268;BME280;11052;43.338;25.502;2023-02-19T01:31:20;100608.75;;;5.69;100.00
2268;BME280;11052;43.338;25.502;2023-02-19T01:33:49;100612.16;;;5.71;100.00
2268;BME280;11052;43.338;25.502;2023-02-19T01:36:17;100618.16;;;5.75;100.00
2268;BME280;11052;43.338;25.502;2023-02-19T01:38:45;100621.53;;;5.80;100.00
2268;BME280;11052;43.338;25.502;2023-02-19T01:41:15;100630.16;;;5.71;100.00
2268;BME280;11052;43.338;25.502;2023-02-19T01:43:59;100631.88;;;5.71;100.00
2268;BME280;11052;43.338;25.502;2023-02-19T01:46:29;100624.19;;;5.65;100.00
2268;BME280;11052;43.338;25.502;2023-02-19T01:49:01;100625.91;;;5.66;100.00
2268;BME280;11052;43.338;25.502;2023-02-19T01:51:30;100631.03;;;5.70;100.00
2268;BME280;11052;43.338;25.502;2023-02-19T01:54:01;100627.66;;;5.59;100.00
2268;BME280;11052;43.338;25.502;2023-02-19T01:56:29;100628.53;;;5.53;100.00
2268;BME280;11052;43.338;25.502;2023-02-19T01:58:59;100631.97;;;5.49;100.00
2268;BME280;11052;43.338;25.502;2023-02-19T02:01:26;100634.53;;;5.49;100.00
2268;BME280;11052;43.338;25.502;2023-02-19T02:03:55;100642.25;;;5.49;100.00
2268;BME280;11052;43.338;25.502;2023-02-19T02:06:24;100625.97;;;5.53;100.00
2268;BME280;11052;43.338;25.502;2023-02-19T02:08:55;100628.53;;;5.53;100.00
2268;BME280;11052;43.338;25.502;2023-02-19T02:11:42;100642.25;;;5.48;100.00
2268;BME280;11052;43.338;25.502;2023-02-19T02:14:11;100631.13;;;5.49;100.00
2268;BME280;11052;43.338;25.502;2023-02-19T02:16:46;100626.78;;;5.58;100.00
2268;BME280;11052;43.338;25.502;2023-02-19T02:19:30;100630.22;;;5.59;100.00
2268;BME280;11052;43.338;25.502;2023-02-19T02:22:05;100620.81;;;5.53;100.00
2268;BME280;11052;43.338;25.502;2023-02-19T02:25:13;100616.53;;;5.55;100.00
2268;BME280;11052;43.338;25.502;2023-02-19T02:28:05;100608.81;;;5.51;100.00
2268;BME280;11052;43.338;25.502;2023-02-19T02:30:41;100602.81;;;5.55;100.00
2268;BME280;11052;43.338;25.502;2023-02-19T02:33:20;100604.53;;;5.50;100.00
2268;BME280;11052;43.338;25.502;2023-02-19T02:35:51;100610.41;;;5.81;100.00
2268;BME280;11052;43.338;25.502;2023-02-19T02:38:22;100612.03;;;5.99;100.00
2268;BME280;11052;43.338;25.502;2023-02-19T02:40:51;100619.31;;;6.55;100.00
2268;BME280;11052;43.338;25.502;2023-02-19T02:43:19;100613.63;;;7.08;100.00
2268;BME280;11052;43.338;25.502;2023-02-19T02:45:48;100627.03;;;7.39;100.00
2268;BME280;11052;43.338;25.502;2023-02-19T02:48:23;100632.06;;;7.48;100.00
2268;BME280;11052;43.338;25.502;2023-02-19T02:50:55;100630.16;;;7.64;100.00
2268;BME280;11052;43.338;25.502;2023-02-19T02:53:27;100625.81;;;7.68;100.00
2268;BME280;11052;43.338;25.502;2023-02-19T02:56:14;100633.47;;;7.74;100.00
2268;BME280;11052;43.338;25.502;2023-02-19T02:58:43;100641.25;;;7.72;100.00
2268;BME280;11052;43.338;25.502;2023-02-19T03:01:16;100633.47;;;7.74;100.00
2268;BME280;11052;43.338;25.502;2023-02-19T03:04:04;100631.63;;;7.82;100.00
2268;BME280;11052;43.338;25.502;2023-02-19T03:06:35;100644.47;;;7.85;100.00
2268;BME280;11052;43.338;25.502;2023-02-19T03:09:08;100648.75;;;7.87;100.00
2268;BME280;11052;43.338;25.502;2023-02-19T03:11:40;100648.03;;;7.79;100.00
2268;BME280;11052;43.338;25.502;2023-02-19T03:14:28;100648.13;;;7.72;100.00
2268;BME280;11052;43.338;25.502;2023-02-19T03:17:20;100663.66;;;7.67;100.00
2268;BME280;11052;43.338;25.502;2023-02-19T03:20:11;100668.00;;;7.64;100.00
2268;BME280;11052;43.338;25.502;2023-02-19T03:22:41;100659.28;;;7.74;100.00
2268;BME280;11052;43.338;25.502;2023-02-19T03:25:11;100659.22;;;7.80;100.00
2268;BME280;11052;43.338;25.502;2023-02-19T03:27:58;100651.53;;;7.75;100.00
2268;BME280;11052;43.338;25.502;2023-02-19T03:30:30;100651.16;;;8.00;100.00
2268;BME280;11052;43.338;25.502;2023-02-19T03:33:01;100655.34;;;8.08;100.00
2268;BME280;11052;43.338;25.502;2023-02-19T03:35:35;100643.00;;;8.29;100.00
2268;BME280;11052;43.338;25.502;2023-02-19T03:38:07;100644.50;;;8.45;100.00
2268;BME280;11052;43.338;25.502;2023-02-19T03:40:42;100634.78;;;8.61;100.00
2268;BME280;11052;43.338;25.502;2023-02-19T03:43:15;100643.25;;;8.67;100.00
2268;BME280;11052;43.338;25.502;2023-02-19T03:45:49;100646.56;;;8.75;98.61
2268;BME280;11052;43.338;25.502;2023-02-19T03:48:30;100633.59;;;8.78;98.21
2268;BME280;11052;43.338;25.502;2023-02-19T03:51:15;100629.22;;;8.82;98.41
2268;BME280;11052;43.338;25.502;2023-02-19T03:53:53;100630.91;;;8.84;96.62
2268;BME280;11052;43.338;25.502;2023-02-19T03:56:29;100630.75;;;8.92;96.17
2268;BME280;11052;43.338;25.502;2023-02-19T03:59:02;100636.78;;;8.93;96.33
2268;BME280;11052;43.338;25.502;2023-02-19T04:01:39;100636.75;;;8.94;96.54
2268;BME280;11052;43.338;25.502;2023-02-19T04:04:14;100640.09;;;9.01;96.45
2268;BME280;11052;43.338;25.502;2023-02-19T04:06:46;100647.56;;;9.16;95.23
2268;BME280;11052;43.338;25.502;2023-02-19T04:09:18;100651.75;;;9.23;93.94
2268;BME280;11052;43.338;25.502;2023-02-19T04:11:47;100653.34;;;9.30;93.35
2268;BME280;11052;43.338;25.502;2023-02-19T04:14:19;100648.09;;;9.33;92.07
2268;BME280;11052;43.338;25.502;2023-02-19T04:16:51;100646.19;;;9.43;91.72
2268;BME280;11052;43.338;25.502;2023-02-19T04:19:24;100649.78;;;9.36;91.39
2268;BME280;11052;43.338;25.502;2023-02-19T04:21:53;100649.38;;;9.54;89.57
2268;BME280;11052;43.338;25.502;2023-02-19T04:24:26;100667.69;;;9.46;91.38
2268;BME280;11052;43.338;25.502;2023-02-19T04:26:55;100677.84;;;9.54;90.30
2268;BME280;11052;43.338;25.502;2023-02-19T04:29:22;100685.53;;;9.59;89.46
2268;BME280;11052;43.338;25.502;2023-02-19T04:31:49;100691.63;;;9.56;89.31
2268;BME280;11052;43.338;25.502;2023-02-19T04:34:16;100694.47;;;9.44;90.65
2268;BME280;11052;43.338;25.502;2023-02-19T04:36:45;100695.72;;;9.23;92.90
2268;BME280;11052;43.338;25.502;2023-02-19T04:39:12;100699.25;;;9.17;93.61
2268;BME280;11052;43.338;25.502;2023-02-19T04:41:39;100691.69;;;9.07;93.40
2268;BME280;11052;43.338;25.502;2023-02-19T04:44:06;100696.00;;;9.06;94.41
2268;BME280;11052;43.338;25.502;2023-02-19T04:46:33;100703.94;;;8.96;95.08
2268;BME280;11052;43.338;25.502;2023-02-19T04:49:00;100709.13;;;8.96;94.80
2268;BME280;11052;43.338;25.502;2023-02-19T04:51:28;100710.72;;;9.03;94.13
2268;BME280;11052;43.338;25.502;2023-02-19T04:53:56;100716.84;;;8.99;95.63
2268;BME280;11052;43.338;25.502;2023-02-19T04:56:23;100725.66;;;8.85;96.50
2268;BME280;11052;43.338;25.502;2023-02-19T04:58:50;100732.56;;;8.85;97.36
2268;BME280;11052;43.338;25.502;2023-02-19T05:01:18;100738.72;;;8.76;98.07
2268;BME280;11052;43.338;25.502;2023-02-19T05:03:45;100737.88;;;8.76;98.28
2268;BME280;11052;43.338;25.502;2023-02-19T05:06:12;100738.06;;;8.65;99.77
2268;BME280;11052;43.338;25.502;2023-02-19T05:08:40;100741.59;;;8.60;99.27
2268;BME280;11052;43.338;25.502;2023-02-19T05:11:10;100747.44;;;8.71;97.97
2268;BME280;11052;43.338;25.502;2023-02-19T05:13:37;100738.75;;;8.75;98.78
2268;BME280;11052;43.338;25.502;2023-02-19T05:16:07;100745.50;;;8.83;98.62
2268;BME280;11052;43.338;25.502;2023-02-19T05:18:35;100755.72;;;8.93;97.63
2268;BME280;11052;43.338;25.502;2023-02-19T05:21:03;100764.78;;;8.66;98.05
2268;BME280;11052;43.338;25.502;2023-02-19T05:23:30;100775.38;;;8.46;99.09
2268;BME280;11052;43.338;25.502;2023-02-19T05:25:57;100784.00;;;8.45;98.98
2268;BME280;11052;43.338;25.502;2023-02-19T05:28:26;100787.56;;;8.38;99.32
2268;BME280;11052;43.338;25.502;2023-02-19T05:30:55;100794.59;;;8.23;100.00
2268;BME280;11052;43.338;25.502;2023-02-19T05:33:23;100801.47;;;8.25;100.00
2268;BME280;11052;43.338;25.502;2023-02-19T05:35:53;100808.44;;;8.18;100.00
2268;BME280;11052;43.338;25.502;2023-02-19T05:38:21;100812.69;;;8.20;100.00
2268;BME280;11052;43.338;25.502;2023-02-19T05:40:48;100814.41;;;8.23;100.00
2268;BME280;11052;43.338;25.502;2023-02-19T05:43:16;100816.00;;;8.36;100.00
2268;BME280;11052;43.338;25.502;2023-02-19T05:45:45;100817.63;;;8.43;100.00
2268;BME280;11052;43.338;25.502;2023-02-19T05:48:12;100818.50;;;8.42;100.00
2268;BME280;11052;43.338;25.502;2023-02-19T05:50:39;100823.59;;;8.47;100.00
2268;BME280;11052;43.338;25.502;2023-02-19T05:53:06;100821.50;;;8.72;100.00
2268;BME280;11052;43.338;25.502;2023-02-19T05:55:34;100824.56;;;9.00;100.00
2268;BME280;11052;43.338;25.502;2023-02-19T05:58:02;100823.22;;;9.30;100.00
2268;BME280;11052;43.338;25.502;2023-02-19T06:00:31;100829.69;;;9.53;100.00
2268;BME280;11052;43.338;25.502;2023-02-19T06:03:00;100834.38;;;9.81;100.00
2268;BME280;11052;43.338;25.502;2023-02-19T06:05:27;100835.81;;;9.97;100.00
2268;BME280;11052;43.338;25.502;2023-02-19T06:07:54;100838.94;;;10.14;100.00
2268;BME280;11052;43.338;25.502;2023-02-19T06:10:21;100848.13;;;10.31;100.00
2268;BME280;11052;43.338;25.502;2023-02-19T06:12:51;100848.19;;;10.68;100.00
2268;BME280;11052;43.338;25.502;2023-02-19T06:15:19;100846.66;;;10.98;99.74
2268;BME280;11052;43.338;25.502;2023-02-19T06:17:46;100853.91;;;11.21;96.25
2268;BME280;11052;43.338;25.502;2023-02-19T06:20:15;100847.25;;;11.44;98.56
2268;BME280;11052;43.338;25.502;2023-02-19T06:22:42;100845.91;;;11.64;96.12
2268;BME280;11052;43.338;25.502;2023-02-19T06:25:09;100848.06;;;11.82;95.07
2268;BME280;11052;43.338;25.502;2023-02-19T06:27:37;100851.50;;;12.13;92.35
2268;BME280;11052;43.338;25.502;2023-02-19T06:30:06;100845.25;;;12.21;91.13
2268;BME280;11052;43.338;25.502;2023-02-19T06:32:33;100842.97;;;12.39;90.79
2268;BME280;11052;43.338;25.502;2023-02-19T06:35:00;100841.47;;;12.62;89.88
2268;BME280;11052;43.338;25.502;2023-02-19T06:37:29;100848.19;;;12.69;87.90
2268;BME280;11052;43.338;25.502;2023-02-19T06:39:56;100850.19;;;12.89;84.83
2268;BME280;11052;43.338;25.502;2023-02-19T06:42:23;100855.44;;;13.13;85.25
2268;BME280;11052;43.338;25.502;2023-02-19T06:44:50;100859.25;;;13.31;84.62
2268;BME280;11052;43.338;25.502;2023-02-19T06:47:17;100865.38;;;13.57;83.24
2268;BME280;11052;43.338;25.502;2023-02-19T06:49:44;100865.66;;;13.74;81.96
2268;BME280;11052;43.338;25.502;2023-02-19T06:52:12;100868.72;;;14.10;81.89
2268;BME280;11052;43.338;25.502;2023-02-19T06:54:40;100874.75;;;14.35;80.62
2268;BME280;11052;43.338;25.502;2023-02-19T06:57:07;100869.81;;;14.53;78.49
2268;BME280;11052;43.338;25.502;2023-02-19T06:59:34;100855.56;;;14.61;78.29
2268;BME280;11052;43.338;25.502;2023-02-19T07:02:01;100858.00;;;14.88;75.81
2268;BME280;11052;43.338;25.502;2023-02-19T07:04:28;100867.84;;;15.03;74.06
2268;BME280;11052;43.338;25.502;2023-02-19T07:06:56;100861.47;;;15.10;74.77
2268;BME280;11052;43.338;25.502;2023-02-19T07:09:24;100852.78;;;15.09;73.66
2268;BME280;11052;43.338;25.502;2023-02-19T07:11:54;100858.50;;;15.19;71.99
2268;BME280;11052;43.338;25.502;2023-02-19T07:14:21;100852.84;;;15.30;72.66
2268;BME280;11052;43.338;25.502;2023-02-19T07:16:49;100855.50;;;15.50;71.40
2268;BME280;11052;43.338;25.502;2023-02-19T07:19:16;100867.44;;;15.56;70.69
2268;BME280;11052;43.338;25.502;2023-02-19T07:21:43;100859.41;;;15.60;71.17
2268;BME280;11052;43.338;25.502;2023-02-19T07:24:10;100860.00;;;15.47;70.14
2268;BME280;11052;43.338;25.502;2023-02-19T07:26:37;100861.94;;;15.41;70.88
2268;BME280;11052;43.338;25.502;2023-02-19T07:29:06;100859.09;;;15.48;71.54
2268;BME280;11052;43.338;25.502;2023-02-19T07:31:33;100857.94;;;15.75;71.33
2268;BME280;11052;43.338;25.502;2023-02-19T07:34:00;100857.78;;;15.98;70.17
2268;BME280;11052;43.338;25.502;2023-02-19T07:36:27;100857.09;;;15.95;70.28
2268;BME280;11052;43.338;25.502;2023-02-19T07:38:55;100859.63;;;15.96;68.77
2268;BME280;11052;43.338;25.502;2023-02-19T07:41:23;100862.03;;;16.01;70.26
2268;BME280;11052;43.338;25.502;2023-02-19T07:43:50;100867.59;;;16.14;68.49
2268;BME280;11052;43.338;25.502;2023-02-19T07:46:19;100869.53;;;16.29;68.69
2268;BME280;11052;43.338;25.502;2023-02-19T07:48:46;100866.00;;;16.49;69.89
2268;BME280;11052;43.338;25.502;2023-02-19T07:51:14;100864.88;;;16.54;68.00
2268;BME280;11052;43.338;25.502;2023-02-19T07:53:47;100865.66;;;16.37;67.50
2268;BME280;11052;43.338;25.502;2023-02-19T07:56:16;100871.41;;;16.46;67.16
2268;BME280;11052;43.338;25.502;2023-02-19T07:58:43;100871.59;;;16.41;66.89
2268;BME280;11052;43.338;25.502;2023-02-19T08:01:14;100876.84;;;16.41;67.19
2268;BME280;11052;43.338;25.502;2023-02-19T08:03:43;100862.06;;;16.40;66.74
2268;BME280;11052;43.338;25.502;2023-02-19T08:06:09;100863.94;;;16.55;67.14
2268;BME280;11052;43.338;25.502;2023-02-19T08:08:36;100866.09;;;16.66;66.35
2268;BME280;11052;43.338;25.502;2023-02-19T08:11:04;100866.94;;;16.85;66.35
2268;BME280;11052;43.338;25.502;2023-02-19T08:13:49;100863.53;;;17.02;66.16
2268;BME280;11052;43.338;25.502;2023-02-19T08:16:18;100852.78;;;17.08;66.84
2268;BME280;11052;43.338;25.502;2023-02-19T08:18:47;100856.25;;;17.09;66.69
2268;BME280;11052;43.338;25.502;2023-02-19T08:21:14;100846.50;;;17.29;65.49
2268;BME280;11052;43.338;25.502;2023-02-19T08:23:43;100854.09;;;17.34;65.88
2268;BME280;11052;43.338;25.502;2023-02-19T08:26:12;100839.84;;;17.22;64.46
2268;BME280;11052;43.338;25.502;2023-02-19T08:28:40;100849.41;;;17.41;64.51
2268;BME280;11052;43.338;25.502;2023-02-19T08:31:08;100844.94;;;17.60;64.45
2268;BME280;11052;43.338;25.502;2023-02-19T08:33:36;100840.38;;;17.46;64.04
2268;BME280;11052;43.338;25.502;2023-02-19T08:36:07;100836.75;;;17.49;62.64
2268;BME280;11052;43.338;25.502;2023-02-19T08:38:36;100841.97;;;17.67;64.22
2268;BME280;11052;43.338;25.502;2023-02-19T08:41:04;100845.97;;;17.75;63.09
2268;BME280;11052;43.338;25.502;2023-02-19T08:43:32;100841.56;;;17.92;63.33
2268;BME280;11052;43.338;25.502;2023-02-19T08:45:59;100838.84;;;17.94;62.94
2268;BME280;11052;43.338;25.502;2023-02-19T08:48:26;100830.09;;;18.11;62.58
2268;BME280;11052;43.338;25.502;2023-02-19T08:50:55;100837.84;;;17.96;62.18
2268;BME280;11052;43.338;25.502;2023-02-19T08:53:24;100833.13;;;18.03;63.57
2268;BME280;11052;43.338;25.502;2023-02-19T08:55:51;100826.72;;;18.09;62.01
2268;BME280;11052;43.338;25.502;2023-02-19T08:58:19;100825.88;;;18.08;60.45
2268;BME280;11052;43.338;25.502;2023-02-19T09:00:46;100822.09;;;17.96;61.90
2268;BME280;11052;43.338;25.502;2023-02-19T09:03:13;100829.13;;;17.96;62.80
2268;BME280;11052;43.338;25.502;2023-02-19T09:05:40;100819.31;;;17.99;61.69
2268;BME280;11052;43.338;25.502;2023-02-19T09:08:08;100815.06;;;18.14;61.24
2268;BME280;11052;43.338;25.502;2023-02-19T09:10:36;100813.00;;;18.04;62.59
2268;BME280;11052;43.338;25.502;2023-02-19T09:13:03;100819.63;;;18.26;63.05
2268;BME280;11052;43.338;25.502;2023-02-19T09:15:31;100818.44;;;18.32;61.10
2268;BME280;11052;43.338;25.502;2023-02-19T09:17:58;100811.66;;;18.28;60.08
2268;BME280;11052;43.338;25.502;2023-02-19T09:20:26;100817.06;;;18.25;59.62
2268;BME280;11052;43.338;25.502;2023-02-19T09:22:56;100800.00;;;18.49;60.08
2268;BME280;11052;43.338;25.502;2023-02-19T09:25:23;100781.78;;;18.46;60.26
2268;BME280;11052;43.338;25.502;2023-02-19T09:27:55;100795.03;;;18.60;60.18
2268;BME280;11052;43.338;25.502;2023-02-19T09:30:22;100777.84;;;18.71;58.97
2268;BME280;11052;43.338;25.502;2023-02-19T09:32:50;100780.59;;;18.52;58.98
2268;BME280;11052;43.338;25.502;2023-02-19T09:35:17;100784.84;;;18.39;59.01
2268;BME280;11052;43.338;25.502;2023-02-19T09:37:44;100779.41;;;18.42;58.79
2268;BME280;11052;43.338;25.502;2023-02-19T09:40:11;100784.06;;;18.52;58.07
2268;BME280;11052;43.338;25.502;2023-02-19T09:42:40;100772.41;;;18.74;58.41
2268;BME280;11052;43.338;25.502;2023-02-19T09:45:15;100776.22;;;18.84;59.00
2268;BME280;11052;43.338;25.502;2023-02-19T09:47:45;100773.06;;;18.93;59.33
2268;BME280;11052;43.338;25.502;2023-02-19T09:50:16;100778.81;;;18.99;58.20
2268;BME280;11052;43.338;25.502;2023-02-19T09:52:48;100771.19;;;18.95;58.22
2268;BME280;11052;43.338;25.502;2023-02-19T09:55:24;100762.22;;;18.99;58.29
2268;BME280;11052;43.338;25.502;2023-02-19T09:57:55;100767.00;;;19.07;58.48
2268;BME280;11052;43.338;25.502;2023-02-19T10:00:25;100762.56;;;18.93;57.75
2268;BME280;11052;43.338;25.502;2023-02-19T10:02:58;100756.72;;;18.88;58.32
2268;BME280;11052;43.338;25.502;2023-02-19T10:05:27;100762.97;;;19.01;58.30
2268;BME280;11052;43.338;25.502;2023-02-19T10:07:55;100749.25;;;19.10;58.98
2268;BME280;11052;43.338;25.502;2023-02-19T10:10:27;100757.91;;;19.12;57.79
2268;BME280;11052;43.338;25.502;2023-02-19T10:12:58;100751.75;;;19.27;58.29
2268;BME280;11052;43.338;25.502;2023-02-19T10:15:32;100749.88;;;19.29;58.22
2268;BME280;11052;43.338;25.502;2023-02-19T10:18:01;100738.44;;;19.30;59.26
2268;BME280;11052;43.338;25.502;2023-02-19T10:20:29;100741.06;;;19.30;57.68
2268;BME280;11052;43.338;25.502;2023-02-19T10:22:59;100729.03;;;19.26;57.53
2268;BME280;11052;43.338;25.502;2023-02-19T10:25:27;100731.94;;;19.22;57.99
2268;BME280;11052;43.338;25.502;2023-02-19T10:27:56;100724.63;;;19.27;57.04
2268;BME280;11052;43.338;25.502;2023-02-19T10:30:27;100724.31;;;19.17;57.24
2268;BME280;11052;43.338;25.502;2023-02-19T10:33:01;100722.63;;;19.16;56.49
2268;BME280;11052;43.338;25.502;2023-02-19T10:35:29;100712.91;;;19.32;56.92
2268;BME280;11052;43.338;25.502;2023-02-19T10:37:58;100717.78;;;19.39;55.87
2268;BME280;11052;43.338;25.502;2023-02-19T10:40:26;100726.06;;;19.47;55.65
2268;BME280;11052;43.338;25.502;2023-02-19T10:42:55;100719.34;;;19.57;54.88
2268;BME280;11052;43.338;25.502;2023-02-19T10:45:29;100704.00;;;19.49;55.37
2268;BME280;11052;43.338;25.502;2023-02-19T10:48:00;100717.22;;;19.48;55.89
2268;BME280;11052;43.338;25.502;2023-02-19T10:50:31;100705.41;;;19.41;55.41
2268;BME280;11052;43.338;25.502;2023-02-19T10:52:59;100686.81;;;19.44;55.58
2268;BME280;11052;43.338;25.502;2023-02-19T10:55:29;100707.75;;;19.45;55.37
2268;BME280;11052;43.338;25.502;2023-02-19T10:57:57;100694.88;;;19.41;54.44
2268;BME280;11052;43.338;25.502;2023-02-19T11:00:44;100693.88;;;19.57;54.21
2268;BME280;11052;43.338;25.502;2023-02-19T11:03:17;100692.44;;;19.38;54.22
2268;BME280;11052;43.338;25.502;2023-02-19T11:05:53;100704.34;;;19.29;54.64
2268;BME280;11052;43.338;25.502;2023-02-19T11:08:22;100693.63;;;19.18;54.55
2268;BME280;11052;43.338;25.502;2023-02-19T11:10:50;100689.75;;;19.09;55.12
2268;BME280;11052;43.338;25.502;2023-02-19T11:13:23;100682.56;;;19.27;56.96
2268;BME280;11052;43.338;25.502;2023-02-19T11:15:53;100680.69;;;19.29;56.68
2268;BME280;11052;43.338;25.502;2023-02-19T11:18:24;100681.63;;;19.42;56.07
2268;BME280;11052;43.338;25.502;2023-02-19T11:20:54;100676.09;;;19.47;54.84
2268;BME280;11052;43.338;25.502;2023-02-19T11:23:24;100673.38;;;19.48;55.82
2268;BME280;11052;43.338;25.502;2023-02-19T11:25:53;100674.88;;;19.38;54.59
2268;BME280;11052;43.338;25.502;2023-02-19T11:28:29;100660.78;;;19.25;54.35
2268;BME280;11052;43.338;25.502;2023-02-19T11:31:12;100671.34;;;19.09;55.73
2268;BME280;11052;43.338;25.502;2023-02-19T11:33:44;100656.44;;;19.10;54.92
2268;BME280;11052;43.338;25.502;2023-02-19T11:36:24;100665.81;;;19.14;55.32
2268;BME280;11052;43.338;25.502;2023-02-19T11:38:52;100654.22;;;19.32;54.77
2268;BME280;11052;43.338;25.502;2023-02-19T11:41:26;100663.69;;;19.49;53.63
2268;BME280;11052;43.338;25.502;2023-02-19T11:44:08;100650.81;;;19.16;54.10
2268;BME280;11052;43.338;25.502;2023-02-19T11:46:43;100647.06;;;19.20;55.00
2268;BME280;11052;43.338;25.502;2023-02-19T11:49:20;100650.53;;;19.20;53.97
2268;BME280;11052;43.338;25.502;2023-02-19T11:52:05;100640.78;;;19.37;55.29
2268;BME280;11052;43.338;25.502;2023-02-19T11:54:45;100637.59;;;19.31;54.84
2268;BME280;11052;43.338;25.502;2023-02-19T11:57:27;100636.75;;;19.45;54.79
2268;BME280;11052;43.338;25.502;2023-02-19T12:00:00;100632.47;;;19.58;54.60
2268;BME280;11052;43.338;25.502;2023-02-19T12:02:51;100620.31;;;19.70;53.83
2268;BME280;11052;43.338;25.502;2023-02-19T12:05:33;100621.38;;;19.53;53.75
2268;BME280;11052;43.338;25.502;2023-02-19T12:11:19;100611.78;;;19.38;53.51
2268;BME280;11052;43.338;25.502;2023-02-19T12:14:05;100617.41;;;19.46;53.44
2268;BME280;11052;43.338;25.502;2023-02-19T12:16:39;100627.53;;;19.38;53.90
2268;BME280;11052;43.338;25.502;2023-02-19T12:19:28;100623.03;;;19.40;53.36
2268;BME280;11052;43.338;25.502;2023-02-19T12:22:23;100621.75;;;19.61;53.03
2268;BME280;11052;43.338;25.502;2023-02-19T12:27:54;100625.03;;;19.65;53.24
2268;BME280;11052;43.338;25.502;2023-02-19T12:30:34;100610.56;;;19.72;53.99
2268;BME280;11052;43.338;25.502;2023-02-19T12:33:18;100605.50;;;19.96;52.36
2268;BME280;11052;43.338;25.502;2023-02-19T12:35:59;100594.03;;;19.97;53.09
2268;BME280;11052;43.338;25.502;2023-02-19T12:38:35;100588.81;;;20.10;53.10
2268;BME280;11052;43.338;25.502;2023-02-19T12:41:19;100583.41;;;19.98;52.80
2268;BME280;11052;43.338;25.502;2023-02-19T12:43:54;100574.00;;;19.94;53.45
2268;BME280;11052;43.338;25.502;2023-02-19T12:46:28;100576.31;;;19.86;53.28
2268;BME280;11052;43.338;25.502;2023-02-19T12:49:01;100569.22;;;19.74;53.34
2268;BME280;11052;43.338;25.502;2023-02-19T12:51:37;100578.97;;;19.86;53.99
2268;BME280;11052;43.338;25.502;2023-02-19T12:54:13;100570.03;;;20.02;55.05
2268;BME280;11052;43.338;25.502;2023-02-19T12:56:46;100572.13;;;19.96;53.37
2268;BME280;11052;43.338;25.502;2023-02-19T12:59:21;100563.28;;;19.97;53.60
2268;BME280;11052;43.338;25.502;2023-02-19T13:01:53;100561.69;;;19.82;54.03
2268;BME280;11052;43.338;25.502;2023-02-19T13:04:29;100554.19;;;19.76;54.80
2268;BME280;11052;43.338;25.502;2023-02-19T13:07:02;100552.50;;;19.47;55.31
2268;BME280;11052;43.338;25.502;2023-02-19T13:09:37;100546.88;;;19.39;55.59
2268;BME280;11052;43.338;25.502;2023-02-19T13:12:10;100546.88;;;19.39;55.81
2268;BME280;11052;43.338;25.502;2023-02-19T13:14:41;100544.44;;;19.50;55.67